aviador You're here:

KSPF Decoded Metar

SPEARFISH/CLYDE in SD, USA
Report Time2017-12-17 05:55:00
UTC Time2017-12-17 06:07:02
Flight Rules vfr VFR
WindCalm
Visibility9999 m
Phenomena:N/A
Clouds:Few 029 Hf
Scattered 035 Hf
Broken 050 Hf
Expected CloudBase > 400 ft AGL from Temp-Dew spread
Ceiling5,000 ft
Temp-2°C (ISA -9)
Dew Point-3°C (93% RH)
AAT-4.4°C
QNH1018 hPa
Density Alt2,684 ft
Elevation3,898 ft
Report Wrong Elevation
Raw Report
METAR KSPF 170555Z AUTO 00000KT 10SM FEW029 SCT035 BKN050 M02/M03 A3005
RMK AO2=

Extra information for KSPF:More info

Metar Taf Metar & Taf Last 4 Metars F.Rules Stats Wind Profile Meteogram Temp Stats Airport Information Weather charts Add Link Nearby VenuesMetar ALERT Operation Metar Decoded Social comments

AIRNAV info for KSPF